createdAt,value
2022-10-22T00:01:07.706Z,5.70
2022-10-22T00:03:38.030Z,6.10
2022-10-22T00:06:05.285Z,5.60
2022-10-22T00:08:32.664Z,5.50
2022-10-22T00:10:59.785Z,5.70
2022-10-22T00:13:26.938Z,6.00
2022-10-22T00:15:53.847Z,6.50
2022-10-22T00:18:21.862Z,5.90
2022-10-22T00:20:48.797Z,5.90
2022-10-22T00:23:15.842Z,5.50
2022-10-22T00:25:42.791Z,5.60
2022-10-22T00:28:11.678Z,5.50
2022-10-22T00:30:38.540Z,5.30
2022-10-22T00:33:05.470Z,5.90
2022-10-22T00:35:33.447Z,5.50
2022-10-22T00:38:00.589Z,5.70
2022-10-22T00:40:27.610Z,5.40
2022-10-22T00:42:55.501Z,5.80
2022-10-22T00:45:27.157Z,5.60
2022-10-22T00:48:04.775Z,5.70
2022-10-22T00:50:37.843Z,5.20
2022-10-22T00:53:10.013Z,4.20
2022-10-22T00:55:38.289Z,4.40
2022-10-22T00:58:05.546Z,4.70
2022-10-22T01:00:32.928Z,4.00
2022-10-22T01:03:00.154Z,4.70
2022-10-22T01:05:30.965Z,4.60
2022-10-22T01:07:58.086Z,5.00
2022-10-22T01:10:36.342Z,4.90
2022-10-22T01:13:06.162Z,5.00
2022-10-22T01:15:55.659Z,5.30
2022-10-22T01:18:59.441Z,5.20
2022-10-22T01:21:26.500Z,5.10
2022-10-22T01:24:22.625Z,5.30
2022-10-22T01:26:55.714Z,4.60
2022-10-22T01:29:29.618Z,5.10
2022-10-22T01:32:05.371Z,4.90
2022-10-22T01:34:33.645Z,5.10
2022-10-22T01:37:03.051Z,5.20
2022-10-22T01:39:31.639Z,5.20
2022-10-22T01:41:59.608Z,5.10
2022-10-22T01:44:32.334Z,4.90
2022-10-22T01:47:05.405Z,4.90
2022-10-22T01:49:42.022Z,5.60
2022-10-22T01:52:46.675Z,5.10
2022-10-22T01:55:26.223Z,5.30
2022-10-22T01:57:58.895Z,5.80
2022-10-22T02:00:26.290Z,5.30
2022-10-22T02:03:10.502Z,5.20
2022-10-22T02:05:49.838Z,5.10
2022-10-22T02:08:24.367Z,5.20
2022-10-22T02:10:52.835Z,5.10
2022-10-22T02:13:27.873Z,5.00
2022-10-22T02:15:57.484Z,5.40
2022-10-22T02:18:30.291Z,5.30
2022-10-22T02:20:59.093Z,5.00
2022-10-22T02:23:27.129Z,5.40
2022-10-22T02:26:23.454Z,5.30
2022-10-22T02:29:06.476Z,5.20
2022-10-22T02:31:38.655Z,5.30
2022-10-22T02:34:11.958Z,5.40
2022-10-22T02:36:40.995Z,5.20
2022-10-22T02:39:09.983Z,4.90
2022-10-22T02:41:39.588Z,5.00
2022-10-22T02:44:12.015Z,4.80
2022-10-22T02:46:40.713Z,5.20
2022-10-22T02:49:08.055Z,5.80
2022-10-22T02:51:35.059Z,5.20
2022-10-22T02:54:02.147Z,4.90
2022-10-22T02:56:29.298Z,5.70
2022-10-22T02:58:56.247Z,5.30
2022-10-22T03:01:23.576Z,5.40
2022-10-22T03:03:50.853Z,5.00
2022-10-22T03:06:18.376Z,5.60
2022-10-22T03:08:45.884Z,5.50
2022-10-22T03:11:13.639Z,5.20
2022-10-22T03:13:40.781Z,5.70
2022-10-22T03:16:08.493Z,5.70
2022-10-22T03:18:35.496Z,5.30
2022-10-22T03:21:31.318Z,5.20
2022-10-22T03:23:59.975Z,5.10
2022-10-22T03:26:32.277Z,5.30
2022-10-22T03:29:01.158Z,5.40
2022-10-22T03:31:28.103Z,4.70
2022-10-22T03:33:55.109Z,5.00
2022-10-22T03:36:22.206Z,5.30
2022-10-22T03:38:49.234Z,5.00
2022-10-22T03:41:16.196Z,5.60
2022-10-22T03:43:43.349Z,5.10
2022-10-22T03:46:10.806Z,5.40
2022-10-22T03:48:37.690Z,5.30
2022-10-22T03:51:06.180Z,5.40
2022-10-22T03:53:33.482Z,5.50
2022-10-22T03:56:00.428Z,5.00
2022-10-22T03:58:27.786Z,5.70
2022-10-22T04:00:54.749Z,5.00
2022-10-22T04:03:23.310Z,5.40
2022-10-22T04:05:50.261Z,5.00
2022-10-22T04:08:17.204Z,5.10
2022-10-22T04:10:52.542Z,5.20
2022-10-22T04:13:20.090Z,5.10
2022-10-22T04:15:47.154Z,5.30
2022-10-22T04:18:14.203Z,4.70
2022-10-22T04:20:44.418Z,4.70
2022-10-22T04:23:15.753Z,4.90
2022-10-22T04:25:42.712Z,5.20
2022-10-22T04:28:10.184Z,5.10
2022-10-22T04:30:37.459Z,5.30
2022-10-22T04:33:04.480Z,4.80
2022-10-22T04:35:31.625Z,5.40
2022-10-22T04:38:00.204Z,5.10
2022-10-22T04:40:28.403Z,5.00
2022-10-22T04:42:55.428Z,4.80
2022-10-22T04:45:22.490Z,5.20
2022-10-22T04:47:49.531Z,4.70
2022-10-22T04:50:17.359Z,5.00
2022-10-22T04:52:44.340Z,5.50
2022-10-22T04:55:11.387Z,4.90
2022-10-22T04:57:39.184Z,5.00
2022-10-22T05:00:07.888Z,4.90
2022-10-22T05:02:35.090Z,5.00
2022-10-22T05:05:03.363Z,4.90
2022-10-22T05:07:30.519Z,5.00
2022-10-22T05:09:57.403Z,5.10
2022-10-22T05:12:26.559Z,5.00
2022-10-22T05:14:53.609Z,4.90
2022-10-22T05:17:24.751Z,5.30
2022-10-22T05:19:51.793Z,5.00
2022-10-22T05:22:19.095Z,4.80
2022-10-22T05:24:46.100Z,4.50
2022-10-22T05:27:13.334Z,5.60
2022-10-22T05:29:40.291Z,4.90
2022-10-22T05:32:07.335Z,4.70
2022-10-22T05:34:36.344Z,5.00
2022-10-22T05:37:05.434Z,5.00
2022-10-22T05:39:37.388Z,5.20
2022-10-22T05:42:05.696Z,4.80
2022-10-22T05:44:32.711Z,5.60
2022-10-22T05:47:02.023Z,6.20
2022-10-22T05:49:28.986Z,7.70
2022-10-22T05:51:57.393Z,9.90
2022-10-22T05:54:24.600Z,10.20
2022-10-22T05:56:52.259Z,11.50
2022-10-22T05:59:19.745Z,12.00
2022-10-22T06:01:47.250Z,10.80
2022-10-22T06:04:14.633Z,11.40
2022-10-22T06:06:52.345Z,9.10
2022-10-22T06:09:29.854Z,8.60
2022-10-22T06:11:59.232Z,7.90
2022-10-22T06:14:29.033Z,8.20
2022-10-22T06:16:56.802Z,8.30
2022-10-22T06:19:27.240Z,9.20
2022-10-22T06:21:54.584Z,8.40
2022-10-22T06:24:22.802Z,8.20
2022-10-22T06:26:51.971Z,7.90
2022-10-22T06:29:19.831Z,8.70
2022-10-22T06:31:46.976Z,8.30
2022-10-22T06:34:15.549Z,8.40
2022-10-22T06:36:45.486Z,7.90
2022-10-22T06:39:17.800Z,8.60
2022-10-22T06:41:45.479Z,8.50
2022-10-22T06:44:19.359Z,8.40
2022-10-22T06:46:50.157Z,7.70
2022-10-22T06:49:17.907Z,7.60
2022-10-22T06:51:45.850Z,7.90
2022-10-22T06:54:12.819Z,8.10
2022-10-22T06:56:40.282Z,8.00
2022-10-22T06:59:07.396Z,8.30
2022-10-22T07:01:37.108Z,7.40
2022-10-22T07:04:06.143Z,8.10
2022-10-22T07:06:33.497Z,8.20
2022-10-22T07:09:11.108Z,7.60
2022-10-22T07:11:42.533Z,8.10
2022-10-22T07:14:10.929Z,8.10
2022-10-22T07:16:41.751Z,7.80
2022-10-22T07:19:10.976Z,7.60
2022-10-22T07:21:38.411Z,7.60
2022-10-22T07:24:06.074Z,7.70
2022-10-22T07:26:34.250Z,7.10
2022-10-22T07:29:02.220Z,7.20
2022-10-22T07:31:31.970Z,7.50
2022-10-22T07:33:59.287Z,7.70
2022-10-22T07:36:26.740Z,7.90
2022-10-22T07:38:57.142Z,7.40
2022-10-22T07:41:25.921Z,7.30
2022-10-22T07:43:53.118Z,7.00
2022-10-22T07:46:20.439Z,7.70
2022-10-22T07:48:47.923Z,7.20
2022-10-22T07:51:15.520Z,7.20
2022-10-22T07:53:43.960Z,7.20
2022-10-22T07:56:11.219Z,6.70
2022-10-22T07:58:38.311Z,7.40
2022-10-22T08:01:09.867Z,7.40
2022-10-22T08:03:37.678Z,7.00
2022-10-22T08:06:05.259Z,6.90
2022-10-22T08:08:33.584Z,7.00
2022-10-22T08:11:02.808Z,7.20
2022-10-22T08:13:31.618Z,7.20
2022-10-22T08:16:02.570Z,7.00
2022-10-22T08:18:30.216Z,6.80
2022-10-22T08:20:58.290Z,6.90
2022-10-22T08:23:28.751Z,6.30
2022-10-22T08:25:57.486Z,6.90
2022-10-22T08:28:25.976Z,7.10
2022-10-22T08:30:55.764Z,6.80
2022-10-22T08:33:26.942Z,6.80
2022-10-22T08:35:54.385Z,6.60
2022-10-22T08:38:21.742Z,6.60
2022-10-22T08:41:13.158Z,6.90
2022-10-22T08:43:55.895Z,7.00
2022-10-22T08:46:29.403Z,6.40
2022-10-22T08:49:01.576Z,6.60
2022-10-22T08:51:34.625Z,6.30
2022-10-22T08:54:31.390Z,6.40
2022-10-22T08:57:23.849Z,6.10
2022-10-22T09:00:12.797Z,6.10
2022-10-22T09:03:06.298Z,5.90
2022-10-22T09:05:55.762Z,5.60
2022-10-22T09:08:24.092Z,6.20
2022-10-22T09:11:27.629Z,6.30
2022-10-22T09:13:56.921Z,5.70
2022-10-22T09:17:05.725Z,6.20
2022-10-22T09:19:50.179Z,5.40
2022-10-22T09:22:51.689Z,6.10
2022-10-22T09:25:28.397Z,5.50
2022-10-22T09:28:00.681Z,5.90
2022-10-22T09:30:31.634Z,6.20
2022-10-22T09:33:15.773Z,6.10
2022-10-22T09:36:06.059Z,6.10
2022-10-22T09:38:41.688Z,5.10
2022-10-22T09:41:09.871Z,5.60
2022-10-22T09:43:37.269Z,5.70
2022-10-22T09:46:07.373Z,5.10
2022-10-22T09:48:45.058Z,5.70
2022-10-22T09:51:24.803Z,5.50
2022-10-22T09:54:00.301Z,5.40
2022-10-22T09:56:43.572Z,5.20
2022-10-22T09:59:18.034Z,5.10
2022-10-22T10:01:46.639Z,4.90
2022-10-22T10:04:17.496Z,5.30
2022-10-22T10:06:46.163Z,5.50
2022-10-22T10:09:24.487Z,5.30
2022-10-22T10:11:51.453Z,4.90
2022-10-22T10:14:52.613Z,5.00
2022-10-22T10:17:51.910Z,5.40
2022-10-22T10:20:54.500Z,4.90
2022-10-22T10:23:25.477Z,5.60
2022-10-22T10:26:38.432Z,5.80
2022-10-22T10:29:12.778Z,4.70
2022-10-22T10:32:10.346Z,5.40
2022-10-22T10:35:00.743Z,5.00
2022-10-22T10:37:41.221Z,4.90
2022-10-22T10:40:27.604Z,4.90
2022-10-22T10:43:21.698Z,5.70
2022-10-22T10:46:12.653Z,5.10
2022-10-22T10:49:10.051Z,5.40
2022-10-22T10:51:42.705Z,5.00
2022-10-22T10:54:25.682Z,5.30
2022-10-22T10:57:08.436Z,5.00
2022-10-22T11:00:00.210Z,5.10
2022-10-22T11:02:42.215Z,4.80
2022-10-22T11:05:58.904Z,4.60
2022-10-22T11:08:34.378Z,3.70
2022-10-22T11:14:03.584Z,4.30
2022-10-22T11:16:49.359Z,4.10
2022-10-22T11:19:46.178Z,4.40
2022-10-22T11:22:24.534Z,4.50
2022-10-22T11:25:20.230Z,4.40
2022-10-22T11:28:16.980Z,4.80
2022-10-22T11:30:47.932Z,4.60
2022-10-22T11:33:22.673Z,4.50
2022-10-22T11:35:50.924Z,4.20
2022-10-22T11:38:24.438Z,4.50
2022-10-22T11:40:55.255Z,4.30
2022-10-22T11:43:35.761Z,4.70
2022-10-22T11:46:26.333Z,5.00
2022-10-22T11:49:24.583Z,4.40
2022-10-22T11:51:52.779Z,4.30
2022-10-22T11:54:44.319Z,4.20
2022-10-22T11:57:17.633Z,5.30
2022-10-22T11:59:47.606Z,5.20
2022-10-22T12:02:30.347Z,7.30
2022-10-22T12:05:18.704Z,7.20
2022-10-22T12:08:01.907Z,8.60
2022-10-22T12:11:06.729Z,11.80
2022-10-22T12:13:52.206Z,16.40
2022-10-22T12:16:32.364Z,18.70
2022-10-22T12:19:39.958Z,20.60
2022-10-22T12:22:07.011Z,21.40
2022-10-22T12:24:44.771Z,21.70
2022-10-22T12:27:53.456Z,19.50
2022-10-22T12:30:48.417Z,18.40
2022-10-22T12:33:23.361Z,17.40
2022-10-22T12:35:54.273Z,14.80
2022-10-22T12:38:25.894Z,14.20
2022-10-22T12:40:56.606Z,14.50
2022-10-22T12:43:29.578Z,19.50
2022-10-22T12:45:59.292Z,26.70
2022-10-22T12:48:37.549Z,28.40
2022-10-22T12:51:09.988Z,25.50
2022-10-22T12:54:13.405Z,23.90
2022-10-22T12:56:44.211Z,21.60
2022-10-22T12:59:27.301Z,19.60
2022-10-22T13:01:55.717Z,17.00
2022-10-22T13:04:35.386Z,15.90
2022-10-22T13:07:18.349Z,12.00
2022-10-22T13:09:59.677Z,15.50
2022-10-22T13:12:37.478Z,15.40
2022-10-22T13:15:33.946Z,14.60
2022-10-22T13:18:20.248Z,14.50
2022-10-22T13:21:02.309Z,13.90
2022-10-22T13:23:32.312Z,12.50
2022-10-22T13:26:18.814Z,13.60
2022-10-22T13:28:57.345Z,12.80
2022-10-22T13:31:38.340Z,12.70
2022-10-22T13:34:11.884Z,12.60
2022-10-22T13:36:41.929Z,10.00
2022-10-22T13:39:23.935Z,9.80
2022-10-22T13:41:52.786Z,9.00
2022-10-22T13:44:24.110Z,8.60
2022-10-22T13:46:56.751Z,8.90
2022-10-22T13:49:24.206Z,8.80
2022-10-22T13:51:51.835Z,8.30
2022-10-22T13:54:24.639Z,9.10
2022-10-22T13:56:51.609Z,9.00
2022-10-22T13:59:22.785Z,9.90
2022-10-22T14:01:53.591Z,9.50
2022-10-22T14:04:23.174Z,9.30
2022-10-22T14:06:51.170Z,8.30
2022-10-22T14:09:19.030Z,8.80
2022-10-22T14:11:46.160Z,8.70
2022-10-22T14:14:17.425Z,8.30
2022-10-22T14:16:46.320Z,8.70
2022-10-22T14:19:16.925Z,7.10
2022-10-22T14:21:44.983Z,6.70
2022-10-22T14:24:13.729Z,7.90
2022-10-22T14:26:41.524Z,7.20
2022-10-22T14:29:09.826Z,6.90
2022-10-22T14:34:14.419Z,7.80
2022-10-22T14:36:44.129Z,7.00
2022-10-22T14:39:13.184Z,7.60
2022-10-22T14:41:41.257Z,7.30
2022-10-22T14:44:12.879Z,7.00
2022-10-22T14:46:42.816Z,7.40
2022-10-22T14:49:10.516Z,6.70
2022-10-22T14:51:38.356Z,7.00
2022-10-22T14:54:06.020Z,6.80
2022-10-22T14:56:38.415Z,7.00
2022-10-22T14:59:06.969Z,7.10
2022-10-22T15:01:34.021Z,6.00
2022-10-22T15:04:01.369Z,6.00
2022-10-22T15:06:28.529Z,5.70
2022-10-22T15:08:56.842Z,5.40
2022-10-22T15:11:23.957Z,5.50
2022-10-22T15:13:54.503Z,6.40
2022-10-22T15:16:21.931Z,6.00
2022-10-22T15:18:48.946Z,6.10
2022-10-22T15:21:21.499Z,6.00
2022-10-22T15:23:50.428Z,5.70
2022-10-22T15:26:18.216Z,6.30
2022-10-22T15:28:48.545Z,6.30
2022-10-22T15:31:16.023Z,6.10
2022-10-22T15:33:44.491Z,5.60
2022-10-22T15:36:18.183Z,5.90
2022-10-22T15:38:46.163Z,5.20
2022-10-22T15:41:17.114Z,5.00
2022-10-22T15:43:47.710Z,4.80
2022-10-22T15:46:17.856Z,4.90
2022-10-22T15:48:49.506Z,6.00
2022-10-22T15:51:19.794Z,5.30
2022-10-22T15:54:10.179Z,5.80
2022-10-22T15:56:39.014Z,5.80
2022-10-22T15:59:06.541Z,6.00
2022-10-22T16:01:35.393Z,6.10
2022-10-22T16:04:03.535Z,6.00
2022-10-22T16:06:36.379Z,6.10
2022-10-22T16:09:06.558Z,5.60
2022-10-22T16:11:35.538Z,6.10
2022-10-22T16:14:04.511Z,6.50
2022-10-22T16:16:34.156Z,4.10
2022-10-22T16:19:02.326Z,4.40
2022-10-22T16:21:30.169Z,4.80
2022-10-22T16:24:00.193Z,4.80
2022-10-22T16:26:31.741Z,4.80
2022-10-22T16:28:59.410Z,5.40
2022-10-22T16:31:26.459Z,5.10
2022-10-22T16:33:55.859Z,5.30
2022-10-22T16:36:23.423Z,5.20
2022-10-22T16:38:50.872Z,5.00
2022-10-22T16:41:20.685Z,5.50
2022-10-22T16:43:51.304Z,4.90
2022-10-22T16:46:22.458Z,5.30
2022-10-22T16:48:52.242Z,5.60
2022-10-22T16:51:22.493Z,4.90
2022-10-22T16:53:51.733Z,5.30
2022-10-22T16:56:19.457Z,5.00
2022-10-22T16:58:49.369Z,4.60
2022-10-22T17:01:18.390Z,4.40
2022-10-22T17:03:46.046Z,4.60
2022-10-22T17:06:14.002Z,4.70
2022-10-22T17:08:42.959Z,4.40
2022-10-22T17:11:17.840Z,4.60
2022-10-22T17:13:49.150Z,4.90
2022-10-22T17:16:18.580Z,4.70
2022-10-22T17:18:47.294Z,5.30
2022-10-22T17:21:15.117Z,5.00
2022-10-22T17:23:43.000Z,5.20
2022-10-22T17:26:17.284Z,5.40
2022-10-22T17:28:44.878Z,4.60
2022-10-22T17:31:18.538Z,4.60
2022-10-22T17:33:47.440Z,3.90
2022-10-22T17:36:15.040Z,3.90
2022-10-22T17:38:43.409Z,4.50
2022-10-22T17:41:18.611Z,4.20
2022-10-22T17:46:20.233Z,4.50
2022-10-22T17:48:56.577Z,4.40
2022-10-22T17:51:25.519Z,4.80
2022-10-22T17:53:53.131Z,4.50
2022-10-22T17:56:24.486Z,5.00
2022-10-22T17:58:52.360Z,5.00
2022-10-22T18:01:23.979Z,4.60
2022-10-22T18:03:53.509Z,4.70
2022-10-22T18:06:24.457Z,4.70
2022-10-22T18:08:51.519Z,5.00
2022-10-22T18:11:22.435Z,4.80
2022-10-22T18:13:55.794Z,3.90
2022-10-22T18:16:24.103Z,4.20
2022-10-22T18:18:54.549Z,4.00
2022-10-22T18:21:23.739Z,4.70
2022-10-22T18:23:51.613Z,4.10
2022-10-22T18:26:24.370Z,3.80
2022-10-22T18:28:54.399Z,4.50
2022-10-22T18:31:24.623Z,4.50
2022-10-22T18:36:22.015Z,4.70
2022-10-22T18:38:54.797Z,4.30
2022-10-22T18:41:22.394Z,4.60
2022-10-22T18:43:57.483Z,4.80
2022-10-22T18:46:26.695Z,4.70
2022-10-22T18:48:55.517Z,4.50
2022-10-22T18:51:24.456Z,4.80
2022-10-22T18:54:05.197Z,3.90
2022-10-22T18:56:41.183Z,4.10
2022-10-22T18:59:17.353Z,4.00
2022-10-22T19:01:45.336Z,3.70
2022-10-22T19:04:13.897Z,4.60
2022-10-22T19:06:45.308Z,4.70
2022-10-22T19:09:15.672Z,4.30
2022-10-22T19:11:45.686Z,4.70
2022-10-22T19:14:16.043Z,5.40
2022-10-22T19:16:43.068Z,4.80
2022-10-22T19:19:11.568Z,4.90
2022-10-22T19:21:38.638Z,5.00
2022-10-22T19:24:06.717Z,4.60
2022-10-22T19:26:34.629Z,5.70
2022-10-22T19:29:03.724Z,5.00
2022-10-22T19:31:31.466Z,4.70
2022-10-22T19:34:00.274Z,5.20
2022-10-22T19:36:30.440Z,4.40
2022-10-22T19:38:57.862Z,4.10
2022-10-22T19:41:26.739Z,3.70
2022-10-22T19:43:55.427Z,4.40
2022-10-22T19:46:24.016Z,5.00
2022-10-22T19:48:52.606Z,4.60
2022-10-22T19:51:23.331Z,4.50
2022-10-22T19:53:51.209Z,4.60
2022-10-22T19:56:21.111Z,4.90
2022-10-22T19:58:48.875Z,4.80
2022-10-22T20:01:17.408Z,4.70
2022-10-22T20:03:47.304Z,4.90
2022-10-22T20:06:17.187Z,4.80
2022-10-22T20:08:49.955Z,4.40
2022-10-22T20:11:22.250Z,4.30
2022-10-22T20:13:52.280Z,4.80
2022-10-22T20:16:23.543Z,5.00
2022-10-22T20:18:52.093Z,4.70
2022-10-22T20:21:21.605Z,4.40
2022-10-22T20:23:52.906Z,4.10
2022-10-22T20:26:23.733Z,4.20
2022-10-22T20:28:52.361Z,4.00
2022-10-22T20:31:22.311Z,4.60
2022-10-22T20:33:53.316Z,5.30
2022-10-22T20:36:22.937Z,5.10
2022-10-22T20:38:51.626Z,5.00
2022-10-22T20:41:23.797Z,5.00
2022-10-22T20:43:54.361Z,5.50
2022-10-22T20:46:31.701Z,5.30
2022-10-22T20:49:09.299Z,6.10
2022-10-22T20:51:37.721Z,5.90
2022-10-22T20:54:06.665Z,4.90
2022-10-22T20:56:36.874Z,6.00
2022-10-22T20:59:05.499Z,5.70
2022-10-22T21:01:39.495Z,5.70
2022-10-22T21:04:07.882Z,6.00
2022-10-22T21:06:38.361Z,5.00
2022-10-22T21:09:15.126Z,5.30
2022-10-22T21:11:51.211Z,5.10
2022-10-22T21:14:20.287Z,4.80
2022-10-22T21:16:50.141Z,5.20
2022-10-22T21:19:19.481Z,5.00
2022-10-22T21:21:46.929Z,5.70
2022-10-22T21:24:14.145Z,5.60
2022-10-22T21:26:43.249Z,5.20
2022-10-22T21:29:13.028Z,5.60
2022-10-22T21:31:41.956Z,5.60
2022-10-22T21:34:09.096Z,5.90
2022-10-22T21:36:36.115Z,6.00
2022-10-22T21:39:03.398Z,6.10
2022-10-22T21:41:30.622Z,5.50
2022-10-22T21:43:58.002Z,6.10
2022-10-22T21:46:27.403Z,5.80
2022-10-22T21:49:02.114Z,5.50
2022-10-22T21:51:34.710Z,5.00
2022-10-22T21:54:02.175Z,5.60
2022-10-22T21:56:34.499Z,5.60
2022-10-22T21:59:03.871Z,5.90
2022-10-22T22:01:31.039Z,6.60
2022-10-22T22:03:59.277Z,6.60
2022-10-22T22:06:29.634Z,6.50
2022-10-22T22:08:59.439Z,6.20
2022-10-22T22:11:28.517Z,6.80
2022-10-22T22:13:59.499Z,7.00
2022-10-22T22:16:30.574Z,7.60
2022-10-22T22:19:06.270Z,7.10
2022-10-22T22:21:35.230Z,6.80
2022-10-22T22:24:04.329Z,7.60
2022-10-22T22:26:31.482Z,6.40
2022-10-22T22:28:59.954Z,6.00
2022-10-22T22:31:32.853Z,5.50
2022-10-22T22:34:08.800Z,5.40
2022-10-22T22:36:39.558Z,6.30
2022-10-22T22:39:12.001Z,6.40
2022-10-22T22:41:39.488Z,6.40
2022-10-22T22:44:06.926Z,6.40
2022-10-22T22:46:34.006Z,6.20
2022-10-22T22:49:01.521Z,6.00
2022-10-22T22:51:28.671Z,6.60
2022-10-22T22:53:58.031Z,6.40
2022-10-22T22:56:28.160Z,5.90
2022-10-22T22:58:56.476Z,5.90
2022-10-22T23:01:29.862Z,6.20
2022-10-22T23:04:05.215Z,6.90
2022-10-22T23:06:40.562Z,6.80
2022-10-22T23:09:11.307Z,5.90
2022-10-22T23:11:39.478Z,5.60
2022-10-22T23:14:08.463Z,5.40
2022-10-22T23:16:38.070Z,5.70
2022-10-22T23:19:06.128Z,5.40
2022-10-22T23:21:36.677Z,6.00
2022-10-22T23:24:07.712Z,6.00
2022-10-22T23:26:41.075Z,6.00
2022-10-22T23:29:12.363Z,6.00
2022-10-22T23:31:40.327Z,6.70
2022-10-22T23:34:09.596Z,6.80
2022-10-22T23:36:38.098Z,6.10
2022-10-22T23:39:06.702Z,5.90
2022-10-22T23:41:34.870Z,6.20
2022-10-22T23:44:03.018Z,6.30
2022-10-22T23:46:30.700Z,6.20
2022-10-22T23:48:57.702Z,6.10
2022-10-22T23:51:26.947Z,6.10
2022-10-22T23:53:59.570Z,5.10
2022-10-22T23:56:27.797Z,5.60
2022-10-22T23:58:55.866Z,5.20
